sensor_id;sensor_type;location;lat;lon;timestamp;P1;durP1;ratioP1;P2;durP2;ratioP2
60847;SDS011;46681;47.696;9.140;2023-02-28T00:01:28;3.93;;;3.40;;
60847;SDS011;46681;47.696;9.140;2023-02-28T00:03:55;3.37;;;3.10;;
60847;SDS011;46681;47.696;9.140;2023-02-28T00:06:21;3.70;;;3.40;;
60847;SDS011;46681;47.696;9.140;2023-02-28T00:08:48;3.63;;;3.33;;
60847;SDS011;46681;47.696;9.140;2023-02-28T00:11:14;3.77;;;3.47;;
60847;SDS011;46681;47.696;9.140;2023-02-28T00:13:44;4.17;;;3.60;;
60847;SDS011;46681;47.696;9.140;2023-02-28T00:16:20;3.47;;;3.27;;
60847;SDS011;46681;47.696;9.140;2023-02-28T00:18:47;4.07;;;3.67;;
60847;SDS011;46681;47.696;9.140;2023-02-28T00:21:14;3.80;;;3.17;;
60847;SDS011;46681;47.696;9.140;2023-02-28T00:23:40;4.30;;;3.90;;
60847;SDS011;46681;47.696;9.140;2023-02-28T00:26:07;3.97;;;3.57;;
60847;SDS011;46681;47.696;9.140;2023-02-28T00:28:38;3.87;;;3.57;;
60847;SDS011;46681;47.696;9.140;2023-02-28T00:31:04;4.17;;;3.77;;
60847;SDS011;46681;47.696;9.140;2023-02-28T00:33:30;4.20;;;3.80;;
60847;SDS011;46681;47.696;9.140;2023-02-28T00:36:05;3.47;;;3.27;;
60847;SDS011;46681;47.696;9.140;2023-02-28T00:38:34;3.67;;;3.30;;
60847;SDS011;46681;47.696;9.140;2023-02-28T00:41:00;3.30;;;3.00;;
60847;SDS011;46681;47.696;9.140;2023-02-28T00:43:27;3.60;;;3.30;;
60847;SDS011;46681;47.696;9.140;2023-02-28T00:45:53;3.33;;;3.13;;
60847;SDS011;46681;47.696;9.140;2023-02-28T00:48:19;3.70;;;3.37;;
60847;SDS011;46681;47.696;9.140;2023-02-28T00:50:48;4.03;;;3.40;;
60847;SDS011;46681;47.696;9.140;2023-02-28T00:53:14;3.07;;;2.87;;
60847;SDS011;46681;47.696;9.140;2023-02-28T00:55:40;3.80;;;3.50;;
60847;SDS011;46681;47.696;9.140;2023-02-28T00:58:05;4.30;;;4.00;;
60847;SDS011;46681;47.696;9.140;2023-02-28T01:00:31;3.83;;;3.50;;
60847;SDS011;46681;47.696;9.140;2023-02-28T01:02:57;3.87;;;3.50;;
60847;SDS011;46681;47.696;9.140;2023-02-28T01:05:25;3.73;;;3.43;;
60847;SDS011;46681;47.696;9.140;2023-02-28T01:07:51;3.93;;;3.63;;
60847;SDS011;46681;47.696;9.140;2023-02-28T01:10:17;3.70;;;3.30;;
60847;SDS011;46681;47.696;9.140;2023-02-28T01:12:46;3.97;;;3.63;;
60847;SDS011;46681;47.696;9.140;2023-02-28T01:15:11;4.10;;;3.77;;
60847;SDS011;46681;47.696;9.140;2023-02-28T01:17:37;3.63;;;3.37;;
60847;SDS011;46681;47.696;9.140;2023-02-28T01:20:03;3.37;;;3.00;;
60847;SDS011;46681;47.696;9.140;2023-02-28T01:22:29;3.77;;;3.47;;
60847;SDS011;46681;47.696;9.140;2023-02-28T01:24:56;3.27;;;2.90;;
60847;SDS011;46681;47.696;9.140;2023-02-28T01:27:22;4.07;;;3.67;;
60847;SDS011;46681;47.696;9.140;2023-02-28T01:29:50;3.70;;;3.30;;
60847;SDS011;46681;47.696;9.140;2023-02-28T01:32:16;3.67;;;3.37;;
60847;SDS011;46681;47.696;9.140;2023-02-28T01:34:42;3.43;;;3.13;;
60847;SDS011;46681;47.696;9.140;2023-02-28T01:37:08;3.97;;;3.57;;
60847;SDS011;46681;47.696;9.140;2023-02-28T01:39:34;3.87;;;3.60;;
60847;SDS011;46681;47.696;9.140;2023-02-28T01:42:03;3.30;;;3.10;;
60847;SDS011;46681;47.696;9.140;2023-02-28T01:47:22;3.70;;;3.40;;
60847;SDS011;46681;47.696;9.140;2023-02-28T01:49:50;3.40;;;3.07;;
60847;SDS011;46681;47.696;9.140;2023-02-28T01:52:17;3.20;;;3.00;;
60847;SDS011;46681;47.696;9.140;2023-02-28T01:54:44;4.03;;;3.57;;
60847;SDS011;46681;47.696;9.140;2023-02-28T01:57:17;3.83;;;3.47;;
60847;SDS011;46681;47.696;9.140;2023-02-28T02:00:08;3.57;;;3.27;;
60847;SDS011;46681;47.696;9.140;2023-02-28T02:02:38;3.37;;;3.07;;
60847;SDS011;46681;47.696;9.140;2023-02-28T02:05:14;3.70;;;3.40;;
60847;SDS011;46681;47.696;9.140;2023-02-28T02:07:43;3.57;;;3.27;;
60847;SDS011;46681;47.696;9.140;2023-02-28T02:34:51;2.93;;;2.73;;
60847;SDS011;46681;47.696;9.140;2023-02-28T02:37:30;3.10;;;2.90;;
60847;SDS011;46681;47.696;9.140;2023-02-28T02:42:49;3.33;;;3.03;;
60847;SDS011;46681;47.696;9.140;2023-02-28T02:47:51;3.23;;;2.93;;
60847;SDS011;46681;47.696;9.140;2023-02-28T02:50:26;3.33;;;3.10;;
60847;SDS011;46681;47.696;9.140;2023-02-28T02:52:59;3.20;;;2.90;;
60847;SDS011;46681;47.696;9.140;2023-02-28T02:55:28;3.20;;;3.00;;
60847;SDS011;46681;47.696;9.140;2023-02-28T02:57:58;3.17;;;2.97;;
60847;SDS011;46681;47.696;9.140;2023-02-28T03:00:35;3.00;;;2.80;;
60847;SDS011;46681;47.696;9.140;2023-02-28T03:03:07;3.47;;;3.17;;
60847;SDS011;46681;47.696;9.140;2023-02-28T03:05:38;3.37;;;3.07;;
60847;SDS011;46681;47.696;9.140;2023-02-28T03:08:13;3.27;;;3.00;;
60847;SDS011;46681;47.696;9.140;2023-02-28T03:10:40;3.27;;;3.03;;
60847;SDS011;46681;47.696;9.140;2023-02-28T03:19:18;2.83;;;2.73;;
60847;SDS011;46681;47.696;9.140;2023-02-28T03:24:53;2.97;;;2.77;;
60847;SDS011;46681;47.696;9.140;2023-02-28T03:28:36;3.30;;;3.03;;
60847;SDS011;46681;47.696;9.140;2023-02-28T03:33:18;3.50;;;3.20;;
60847;SDS011;46681;47.696;9.140;2023-02-28T03:35:56;3.07;;;2.80;;
60847;SDS011;46681;47.696;9.140;2023-02-28T03:38:58;2.87;;;2.73;;
60847;SDS011;46681;47.696;9.140;2023-02-28T03:41:48;2.97;;;2.67;;
60847;SDS011;46681;47.696;9.140;2023-02-28T03:44:35;3.10;;;2.90;;
60847;SDS011;46681;47.696;9.140;2023-02-28T03:47:17;2.90;;;2.70;;
60847;SDS011;46681;47.696;9.140;2023-02-28T03:52:27;3.23;;;2.80;;
60847;SDS011;46681;47.696;9.140;2023-02-28T03:55:00;2.93;;;2.73;;
60847;SDS011;46681;47.696;9.140;2023-02-28T03:57:33;3.53;;;3.23;;
60847;SDS011;46681;47.696;9.140;2023-02-28T04:00:20;3.33;;;3.13;;
60847;SDS011;46681;47.696;9.140;2023-02-28T04:02:57;2.83;;;2.60;;
60847;SDS011;46681;47.696;9.140;2023-02-28T04:05:29;4.80;;;2.97;;
60847;SDS011;46681;47.696;9.140;2023-02-28T04:08:07;3.27;;;3.07;;
60847;SDS011;46681;47.696;9.140;2023-02-28T04:10:34;2.77;;;2.60;;
60847;SDS011;46681;47.696;9.140;2023-02-28T04:13:09;2.80;;;2.70;;
60847;SDS011;46681;47.696;9.140;2023-02-28T04:15:35;2.73;;;2.63;;
60847;SDS011;46681;47.696;9.140;2023-02-28T04:18:04;2.87;;;2.77;;
60847;SDS011;46681;47.696;9.140;2023-02-28T04:20:33;2.80;;;2.70;;
60847;SDS011;46681;47.696;9.140;2023-02-28T04:23:06;2.70;;;2.50;;
60847;SDS011;46681;47.696;9.140;2023-02-28T04:25:32;3.20;;;3.00;;
60847;SDS011;46681;47.696;9.140;2023-02-28T04:27:57;3.97;;;3.40;;
60847;SDS011;46681;47.696;9.140;2023-02-28T04:30:23;3.30;;;3.10;;
60847;SDS011;46681;47.696;9.140;2023-02-28T04:32:50;3.17;;;2.97;;
60847;SDS011;46681;47.696;9.140;2023-02-28T04:35:16;3.50;;;3.20;;
60847;SDS011;46681;47.696;9.140;2023-02-28T04:37:42;2.73;;;2.57;;
60847;SDS011;46681;47.696;9.140;2023-02-28T04:40:07;3.50;;;3.20;;
60847;SDS011;46681;47.696;9.140;2023-02-28T04:42:33;3.40;;;3.20;;
60847;SDS011;46681;47.696;9.140;2023-02-28T04:45:01;3.00;;;2.80;;
60847;SDS011;46681;47.696;9.140;2023-02-28T04:47:29;3.63;;;3.33;;
60847;SDS011;46681;47.696;9.140;2023-02-28T04:49:55;3.23;;;3.03;;
60847;SDS011;46681;47.696;9.140;2023-02-28T04:52:23;3.20;;;3.00;;
60847;SDS011;46681;47.696;9.140;2023-02-28T04:54:49;4.00;;;3.60;;
60847;SDS011;46681;47.696;9.140;2023-02-28T04:57:14;3.27;;;3.07;;
60847;SDS011;46681;47.696;9.140;2023-02-28T04:59:41;3.30;;;3.10;;
60847;SDS011;46681;47.696;9.140;2023-02-28T05:02:08;3.30;;;3.10;;
60847;SDS011;46681;47.696;9.140;2023-02-28T05:04:34;3.40;;;3.13;;
60847;SDS011;46681;47.696;9.140;2023-02-28T05:07:02;3.80;;;3.50;;
60847;SDS011;46681;47.696;9.140;2023-02-28T05:09:33;3.87;;;3.67;;
60847;SDS011;46681;47.696;9.140;2023-02-28T05:11:59;3.80;;;3.50;;
60847;SDS011;46681;47.696;9.140;2023-02-28T05:14:25;4.30;;;4.00;;
60847;SDS011;46681;47.696;9.140;2023-02-28T05:16:53;4.17;;;3.73;;
60847;SDS011;46681;47.696;9.140;2023-02-28T05:19:19;4.07;;;3.80;;
60847;SDS011;46681;47.696;9.140;2023-02-28T05:21:55;4.33;;;3.93;;
60847;SDS011;46681;47.696;9.140;2023-02-28T05:24:29;4.03;;;3.70;;
60847;SDS011;46681;47.696;9.140;2023-02-28T05:26:55;3.47;;;3.27;;
60847;SDS011;46681;47.696;9.140;2023-02-28T05:29:20;4.10;;;3.80;;
60847;SDS011;46681;47.696;9.140;2023-02-28T05:31:48;3.80;;;3.50;;
60847;SDS011;46681;47.696;9.140;2023-02-28T05:34:14;3.60;;;3.37;;
60847;SDS011;46681;47.696;9.140;2023-02-28T05:36:45;3.60;;;3.30;;
60847;SDS011;46681;47.696;9.140;2023-02-28T05:39:11;3.90;;;3.60;;
60847;SDS011;46681;47.696;9.140;2023-02-28T05:41:39;3.83;;;3.23;;
60847;SDS011;46681;47.696;9.140;2023-02-28T05:44:07;3.87;;;3.57;;
60847;SDS011;46681;47.696;9.140;2023-02-28T05:46:33;3.50;;;3.30;;
60847;SDS011;46681;47.696;9.140;2023-02-28T05:49:01;3.60;;;3.40;;
60847;SDS011;46681;47.696;9.140;2023-02-28T05:51:27;3.83;;;3.53;;
60847;SDS011;46681;47.696;9.140;2023-02-28T05:53:58;3.90;;;3.60;;
60847;SDS011;46681;47.696;9.140;2023-02-28T05:56:27;3.53;;;3.30;;
60847;SDS011;46681;47.696;9.140;2023-02-28T05:58:53;3.93;;;3.53;;
60847;SDS011;46681;47.696;9.140;2023-02-28T06:01:31;4.17;;;3.87;;
60847;SDS011;46681;47.696;9.140;2023-02-28T06:04:02;3.50;;;3.30;;
60847;SDS011;46681;47.696;9.140;2023-02-28T06:06:33;5.20;;;3.70;;
60847;SDS011;46681;47.696;9.140;2023-02-28T06:08:59;3.93;;;3.53;;
60847;SDS011;46681;47.696;9.140;2023-02-28T06:11:29;4.10;;;3.77;;
60847;SDS011;46681;47.696;9.140;2023-02-28T06:14:01;3.80;;;3.50;;
60847;SDS011;46681;47.696;9.140;2023-02-28T06:16:45;4.10;;;3.80;;
60847;SDS011;46681;47.696;9.140;2023-02-28T06:19:16;3.67;;;3.37;;
60847;SDS011;46681;47.696;9.140;2023-02-28T06:21:42;3.63;;;3.43;;
60847;SDS011;46681;47.696;9.140;2023-02-28T06:24:10;4.23;;;3.93;;
60847;SDS011;46681;47.696;9.140;2023-02-28T06:26:35;3.90;;;3.60;;
60847;SDS011;46681;47.696;9.140;2023-02-28T06:29:02;3.90;;;3.70;;
60847;SDS011;46681;47.696;9.140;2023-02-28T06:31:32;4.87;;;4.20;;
60847;SDS011;46681;47.696;9.140;2023-02-28T06:33:57;3.97;;;3.67;;
60847;SDS011;46681;47.696;9.140;2023-02-28T06:36:23;4.20;;;3.90;;
60847;SDS011;46681;47.696;9.140;2023-02-28T06:38:49;4.17;;;3.83;;
60847;SDS011;46681;47.696;9.140;2023-02-28T06:41:14;3.97;;;3.70;;
60847;SDS011;46681;47.696;9.140;2023-02-28T06:43:42;3.97;;;3.67;;
60847;SDS011;46681;47.696;9.140;2023-02-28T06:46:15;4.50;;;4.17;;
60847;SDS011;46681;47.696;9.140;2023-02-28T06:48:44;4.33;;;3.93;;
60847;SDS011;46681;47.696;9.140;2023-02-28T06:51:19;4.00;;;3.70;;
60847;SDS011;46681;47.696;9.140;2023-02-28T06:53:48;4.27;;;3.87;;
60847;SDS011;46681;47.696;9.140;2023-02-28T06:56:18;3.67;;;3.37;;
60847;SDS011;46681;47.696;9.140;2023-02-28T06:58:50;4.20;;;3.90;;
60847;SDS011;46681;47.696;9.140;2023-02-28T07:01:17;4.20;;;3.90;;
60847;SDS011;46681;47.696;9.140;2023-02-28T07:03:49;4.50;;;4.10;;
60847;SDS011;46681;47.696;9.140;2023-02-28T07:06:15;4.23;;;3.93;;
60847;SDS011;46681;47.696;9.140;2023-02-28T07:08:46;4.50;;;4.17;;
60847;SDS011;46681;47.696;9.140;2023-02-28T07:11:12;5.00;;;4.20;;
60847;SDS011;46681;47.696;9.140;2023-02-28T07:13:40;4.43;;;4.10;;
60847;SDS011;46681;47.696;9.140;2023-02-28T07:16:12;4.30;;;4.00;;
60847;SDS011;46681;47.696;9.140;2023-02-28T07:18:38;4.37;;;4.07;;
60847;SDS011;46681;47.696;9.140;2023-02-28T07:21:10;4.07;;;3.67;;
60847;SDS011;46681;47.696;9.140;2023-02-28T07:23:42;4.47;;;4.13;;
60847;SDS011;46681;47.696;9.140;2023-02-28T07:26:10;4.17;;;3.83;;
60847;SDS011;46681;47.696;9.140;2023-02-28T07:28:42;4.60;;;4.20;;
60847;SDS011;46681;47.696;9.140;2023-02-28T07:31:09;4.87;;;4.47;;
60847;SDS011;46681;47.696;9.140;2023-02-28T07:33:39;4.73;;;3.70;;
60847;SDS011;46681;47.696;9.140;2023-02-28T07:36:12;4.53;;;4.20;;
60847;SDS011;46681;47.696;9.140;2023-02-28T07:38:50;4.13;;;3.83;;
60847;SDS011;46681;47.696;9.140;2023-02-28T07:41:21;3.87;;;3.57;;
60847;SDS011;46681;47.696;9.140;2023-02-28T07:43:52;3.83;;;3.53;;
60847;SDS011;46681;47.696;9.140;2023-02-28T07:46:18;5.10;;;4.60;;
60847;SDS011;46681;47.696;9.140;2023-02-28T07:48:46;4.53;;;3.90;;
60847;SDS011;46681;47.696;9.140;2023-02-28T07:51:11;4.47;;;4.07;;
60847;SDS011;46681;47.696;9.140;2023-02-28T07:53:46;4.30;;;3.90;;
60847;SDS011;46681;47.696;9.140;2023-02-28T07:56:14;4.30;;;3.97;;
60847;SDS011;46681;47.696;9.140;2023-02-28T07:58:40;4.80;;;4.40;;
60847;SDS011;46681;47.696;9.140;2023-02-28T08:01:10;4.80;;;4.40;;
60847;SDS011;46681;47.696;9.140;2023-02-28T08:03:41;4.47;;;4.07;;
60847;SDS011;46681;47.696;9.140;2023-02-28T08:06:08;4.63;;;4.33;;
60847;SDS011;46681;47.696;9.140;2023-02-28T08:08:47;4.93;;;4.50;;
60847;SDS011;46681;47.696;9.140;2023-02-28T08:11:18;4.50;;;4.10;;
60847;SDS011;46681;47.696;9.140;2023-02-28T08:13:45;5.00;;;4.50;;
60847;SDS011;46681;47.696;9.140;2023-02-28T08:16:16;4.03;;;3.73;;
60847;SDS011;46681;47.696;9.140;2023-02-28T08:18:44;4.57;;;4.20;;
60847;SDS011;46681;47.696;9.140;2023-02-28T08:21:12;4.57;;;4.27;;
60847;SDS011;46681;47.696;9.140;2023-02-28T08:23:39;4.27;;;3.97;;
60847;SDS011;46681;47.696;9.140;2023-02-28T08:26:09;4.40;;;4.00;;
60847;SDS011;46681;47.696;9.140;2023-02-28T08:28:45;4.43;;;4.13;;
60847;SDS011;46681;47.696;9.140;2023-02-28T08:31:16;4.33;;;3.93;;
60847;SDS011;46681;47.696;9.140;2023-02-28T08:33:42;3.90;;;3.50;;
60847;SDS011;46681;47.696;9.140;2023-02-28T08:36:12;4.40;;;4.00;;
60847;SDS011;46681;47.696;9.140;2023-02-28T08:38:43;4.27;;;3.90;;
60847;SDS011;46681;47.696;9.140;2023-02-28T08:41:13;4.50;;;4.20;;
60847;SDS011;46681;47.696;9.140;2023-02-28T08:43:41;4.20;;;3.90;;
60847;SDS011;46681;47.696;9.140;2023-02-28T08:46:07;4.60;;;4.20;;
60847;SDS011;46681;47.696;9.140;2023-02-28T08:48:35;4.83;;;4.43;;
60847;SDS011;46681;47.696;9.140;2023-02-28T08:51:07;4.30;;;4.00;;
60847;SDS011;46681;47.696;9.140;2023-02-28T08:53:37;4.37;;;4.07;;
60847;SDS011;46681;47.696;9.140;2023-02-28T08:56:08;4.70;;;4.30;;
60847;SDS011;46681;47.696;9.140;2023-02-28T08:58:47;4.93;;;4.53;;
60847;SDS011;46681;47.696;9.140;2023-02-28T09:01:16;4.50;;;4.20;;
60847;SDS011;46681;47.696;9.140;2023-02-28T09:03:45;5.30;;;4.50;;
60847;SDS011;46681;47.696;9.140;2023-02-28T09:06:18;4.50;;;4.20;;
60847;SDS011;46681;47.696;9.140;2023-02-28T09:08:49;5.27;;;4.77;;
60847;SDS011;46681;47.696;9.140;2023-02-28T09:11:17;4.07;;;3.77;;
60847;SDS011;46681;47.696;9.140;2023-02-28T09:13:49;4.60;;;4.27;;
60847;SDS011;46681;47.696;9.140;2023-02-28T09:16:17;4.57;;;4.17;;
60847;SDS011;46681;47.696;9.140;2023-02-28T09:18:43;4.70;;;4.37;;
60847;SDS011;46681;47.696;9.140;2023-02-28T09:21:11;4.30;;;4.00;;
60847;SDS011;46681;47.696;9.140;2023-02-28T09:23:42;4.57;;;4.17;;
60847;SDS011;46681;47.696;9.140;2023-02-28T09:26:19;4.80;;;4.40;;
60847;SDS011;46681;47.696;9.140;2023-02-28T09:28:49;4.93;;;4.53;;
60847;SDS011;46681;47.696;9.140;2023-02-28T09:31:20;5.37;;;4.87;;
60847;SDS011;46681;47.696;9.140;2023-02-28T09:33:50;5.47;;;4.93;;
60847;SDS011;46681;47.696;9.140;2023-02-28T09:36:21;4.60;;;4.20;;
60847;SDS011;46681;47.696;9.140;2023-02-28T09:38:55;5.63;;;5.03;;
60847;SDS011;46681;47.696;9.140;2023-02-28T09:41:27;5.40;;;4.90;;
60847;SDS011;46681;47.696;9.140;2023-02-28T09:44:02;4.97;;;4.57;;
60847;SDS011;46681;47.696;9.140;2023-02-28T09:46:51;5.03;;;4.63;;
60847;SDS011;46681;47.696;9.140;2023-02-28T09:49:48;4.30;;;4.00;;
60847;SDS011;46681;47.696;9.140;2023-02-28T09:52:18;5.20;;;4.80;;
60847;SDS011;46681;47.696;9.140;2023-02-28T09:55:39;5.10;;;4.40;;
60847;SDS011;46681;47.696;9.140;2023-02-28T09:57:51;4.97;;;4.63;;
60847;SDS011;46681;47.696;9.140;2023-02-28T10:08:25;4.27;;;3.93;;
60847;SDS011;46681;47.696;9.140;2023-02-28T10:11:00;4.90;;;4.50;;
60847;SDS011;46681;47.696;9.140;2023-02-28T10:16:10;4.77;;;4.47;;
60847;SDS011;46681;47.696;9.140;2023-02-28T10:18:49;4.70;;;4.30;;
60847;SDS011;46681;47.696;9.140;2023-02-28T10:24:27;5.10;;;4.73;;
60847;SDS011;46681;47.696;9.140;2023-02-28T10:29:50;5.07;;;4.67;;
60847;SDS011;46681;47.696;9.140;2023-02-28T10:32:28;5.07;;;4.60;;
60847;SDS011;46681;47.696;9.140;2023-02-28T10:35:18;5.23;;;4.83;;
60847;SDS011;46681;47.696;9.140;2023-02-28T10:37:55;4.50;;;4.20;;
60847;SDS011;46681;47.696;9.140;2023-02-28T10:40:28;4.60;;;4.30;;
60847;SDS011;46681;47.696;9.140;2023-02-28T10:43:04;5.10;;;4.70;;
60847;SDS011;46681;47.696;9.140;2023-02-28T10:51:12;4.60;;;4.20;;
60847;SDS011;46681;47.696;9.140;2023-02-28T10:53:47;5.30;;;4.80;;
60847;SDS011;46681;47.696;9.140;2023-02-28T10:56:22;4.90;;;4.50;;
60847;SDS011;46681;47.696;9.140;2023-02-28T11:01:50;4.80;;;4.40;;
60847;SDS011;46681;47.696;9.140;2023-02-28T11:04:23;5.03;;;4.53;;
60847;SDS011;46681;47.696;9.140;2023-02-28T11:07:05;5.13;;;4.63;;
60847;SDS011;46681;47.696;9.140;2023-02-28T11:09:52;5.47;;;4.97;;
60847;SDS011;46681;47.696;9.140;2023-02-28T11:12:30;5.13;;;4.63;;
60847;SDS011;46681;47.696;9.140;2023-02-28T11:15:03;5.90;;;5.40;;
60847;SDS011;46681;47.696;9.140;2023-02-28T11:20:35;5.17;;;4.77;;
60847;SDS011;46681;47.696;9.140;2023-02-28T11:23:01;4.87;;;4.40;;
60847;SDS011;46681;47.696;9.140;2023-02-28T11:25:33;5.43;;;5.03;;
60847;SDS011;46681;47.696;9.140;2023-02-28T11:28:06;5.77;;;5.27;;
60847;SDS011;46681;47.696;9.140;2023-02-28T11:31:00;4.83;;;4.43;;
60847;SDS011;46681;47.696;9.140;2023-02-28T11:39:07;5.83;;;5.33;;
60847;SDS011;46681;47.696;9.140;2023-02-28T11:44:59;5.10;;;4.70;;
60847;SDS011;46681;47.696;9.140;2023-02-28T11:48:01;5.73;;;5.23;;
60847;SDS011;46681;47.696;9.140;2023-02-28T11:56:39;6.47;;;5.00;;
60847;SDS011;46681;47.696;9.140;2023-02-28T11:59:46;6.30;;;5.40;;
60847;SDS011;46681;47.696;9.140;2023-02-28T12:02:52;5.63;;;5.23;;
60847;SDS011;46681;47.696;9.140;2023-02-28T12:05:22;6.00;;;5.57;;
60847;SDS011;46681;47.696;9.140;2023-02-28T12:11:09;6.33;;;5.83;;
60847;SDS011;46681;47.696;9.140;2023-02-28T12:14:15;6.63;;;6.03;;
60847;SDS011;46681;47.696;9.140;2023-02-28T12:22:48;5.80;;;5.30;;
60847;SDS011;46681;47.696;9.140;2023-02-28T12:25:47;6.40;;;5.80;;
60847;SDS011;46681;47.696;9.140;2023-02-28T12:28:52;6.10;;;5.60;;
60847;SDS011;46681;47.696;9.140;2023-02-28T12:31:46;5.60;;;5.10;;
60847;SDS011;46681;47.696;9.140;2023-02-28T12:34:44;6.37;;;5.37;;
60847;SDS011;46681;47.696;9.140;2023-02-28T12:37:27;6.23;;;5.73;;
60847;SDS011;46681;47.696;9.140;2023-02-28T12:40:05;6.73;;;6.13;;
60847;SDS011;46681;47.696;9.140;2023-02-28T12:42:57;6.80;;;6.20;;
60847;SDS011;46681;47.696;9.140;2023-02-28T12:45:44;6.67;;;5.90;;
60847;SDS011;46681;47.696;9.140;2023-02-28T12:51:23;7.00;;;6.40;;
60847;SDS011;46681;47.696;9.140;2023-02-28T12:59:54;7.27;;;6.57;;
60847;SDS011;46681;47.696;9.140;2023-02-28T13:11:24;6.80;;;6.20;;
60847;SDS011;46681;47.696;9.140;2023-02-28T13:14:05;7.03;;;6.43;;
60847;SDS011;46681;47.696;9.140;2023-02-28T13:16:56;6.90;;;6.30;;
60847;SDS011;46681;47.696;9.140;2023-02-28T13:19:39;6.83;;;6.23;;
60847;SDS011;46681;47.696;9.140;2023-02-28T13:22:16;7.07;;;6.43;;
60847;SDS011;46681;47.696;9.140;2023-02-28T13:25:00;7.67;;;7.07;;
60847;SDS011;46681;47.696;9.140;2023-02-28T13:27:39;6.73;;;6.03;;
60847;SDS011;46681;47.696;9.140;2023-02-28T13:36:39;8.07;;;7.27;;
60847;SDS011;46681;47.696;9.140;2023-02-28T14:07:21;8.00;;;6.93;;
60847;SDS011;46681;47.696;9.140;2023-02-28T14:10:18;7.20;;;6.50;;
60847;SDS011;46681;47.696;9.140;2023-02-28T14:18:06;7.13;;;6.47;;
60847;SDS011;46681;47.696;9.140;2023-02-28T14:20:45;6.87;;;6.27;;
60847;SDS011;46681;47.696;9.140;2023-02-28T14:29:18;7.60;;;6.83;;
60847;SDS011;46681;47.696;9.140;2023-02-28T14:37:44;7.30;;;6.60;;
60847;SDS011;46681;47.696;9.140;2023-02-28T14:40:32;8.07;;;7.27;;
60847;SDS011;46681;47.696;9.140;2023-02-28T14:43:16;7.33;;;6.73;;
60847;SDS011;46681;47.696;9.140;2023-02-28T14:45:50;7.63;;;6.93;;
60847;SDS011;46681;47.696;9.140;2023-02-28T14:48:24;8.23;;;7.53;;
60847;SDS011;46681;47.696;9.140;2023-02-28T14:50:56;6.47;;;5.97;;
60847;SDS011;46681;47.696;9.140;2023-02-28T14:53:37;7.27;;;6.57;;
60847;SDS011;46681;47.696;9.140;2023-02-28T14:56:03;7.73;;;7.03;;
60847;SDS011;46681;47.696;9.140;2023-02-28T14:58:30;7.63;;;7.03;;
60847;SDS011;46681;47.696;9.140;2023-02-28T15:01:09;7.37;;;6.77;;
60847;SDS011;46681;47.696;9.140;2023-02-28T15:03:44;7.87;;;7.07;;
60847;SDS011;46681;47.696;9.140;2023-02-28T15:06:15;7.43;;;6.80;;
60847;SDS011;46681;47.696;9.140;2023-02-28T15:08:46;8.10;;;7.27;;
60847;SDS011;46681;47.696;9.140;2023-02-28T15:13:52;8.50;;;7.70;;
60847;SDS011;46681;47.696;9.140;2023-02-28T15:16:26;8.83;;;7.37;;
60847;SDS011;46681;47.696;9.140;2023-02-28T15:19:15;8.30;;;7.33;;
60847;SDS011;46681;47.696;9.140;2023-02-28T15:22:04;7.83;;;7.13;;
60847;SDS011;46681;47.696;9.140;2023-02-28T15:24:41;7.47;;;6.77;;
60847;SDS011;46681;47.696;9.140;2023-02-28T15:27:24;8.93;;;7.80;;
60847;SDS011;46681;47.696;9.140;2023-02-28T15:29:59;8.40;;;7.60;;
60847;SDS011;46681;47.696;9.140;2023-02-28T15:32:40;7.93;;;7.23;;
60847;SDS011;46681;47.696;9.140;2023-02-28T15:35:28;8.23;;;7.43;;
60847;SDS011;46681;47.696;9.140;2023-02-28T15:40:55;8.47;;;7.67;;
60847;SDS011;46681;47.696;9.140;2023-02-28T15:43:36;8.80;;;8.00;;
60847;SDS011;46681;47.696;9.140;2023-02-28T15:46:06;7.00;;;6.30;;
60847;SDS011;46681;47.696;9.140;2023-02-28T15:51:43;8.63;;;7.83;;
60847;SDS011;46681;47.696;9.140;2023-02-28T15:54:14;8.10;;;7.40;;
60847;SDS011;46681;47.696;9.140;2023-02-28T15:56:49;8.43;;;7.63;;
60847;SDS011;46681;47.696;9.140;2023-02-28T15:59:24;8.27;;;7.57;;
60847;SDS011;46681;47.696;9.140;2023-02-28T16:07:38;8.10;;;7.30;;
60847;SDS011;46681;47.696;9.140;2023-02-28T16:10:13;7.70;;;7.00;;
60847;SDS011;46681;47.696;9.140;2023-02-28T16:12:43;8.07;;;7.27;;
60847;SDS011;46681;47.696;9.140;2023-02-28T16:15:19;8.17;;;7.27;;
60847;SDS011;46681;47.696;9.140;2023-02-28T16:17:53;7.93;;;7.23;;
60847;SDS011;46681;47.696;9.140;2023-02-28T16:23:14;8.53;;;7.50;;
60847;SDS011;46681;47.696;9.140;2023-02-28T16:25:42;9.03;;;8.10;;
60847;SDS011;46681;47.696;9.140;2023-02-28T16:28:29;9.77;;;8.43;;
60847;SDS011;46681;47.696;9.140;2023-02-28T16:31:03;8.90;;;8.00;;
60847;SDS011;46681;47.696;9.140;2023-02-28T16:33:34;9.37;;;8.43;;
60847;SDS011;46681;47.696;9.140;2023-02-28T16:36:03;9.67;;;8.67;;
60847;SDS011;46681;47.696;9.140;2023-02-28T16:38:33;9.17;;;8.03;;
60847;SDS011;46681;47.696;9.140;2023-02-28T16:40:59;11.00;;;8.97;;
60847;SDS011;46681;47.696;9.140;2023-02-28T16:43:25;11.73;;;9.20;;
60847;SDS011;46681;47.696;9.140;2023-02-28T16:46:08;10.90;;;8.93;;
60847;SDS011;46681;47.696;9.140;2023-02-28T16:48:47;9.60;;;8.60;;
60847;SDS011;46681;47.696;9.140;2023-02-28T16:51:16;9.33;;;8.33;;
60847;SDS011;46681;47.696;9.140;2023-02-28T16:53:44;9.03;;;8.13;;
60847;SDS011;46681;47.696;9.140;2023-02-28T16:56:23;9.93;;;7.70;;
60847;SDS011;46681;47.696;9.140;2023-02-28T16:59:08;9.07;;;8.13;;
60847;SDS011;46681;47.696;9.140;2023-02-28T17:01:38;9.13;;;8.07;;
60847;SDS011;46681;47.696;9.140;2023-02-28T17:04:04;9.00;;;8.10;;
60847;SDS011;46681;47.696;9.140;2023-02-28T17:06:30;8.97;;;8.07;;
60847;SDS011;46681;47.696;9.140;2023-02-28T17:09:09;8.77;;;7.87;;
60847;SDS011;46681;47.696;9.140;2023-02-28T17:11:53;9.43;;;8.50;;
60847;SDS011;46681;47.696;9.140;2023-02-28T17:14:21;9.73;;;8.83;;
60847;SDS011;46681;47.696;9.140;2023-02-28T17:16:48;8.97;;;8.10;;
60847;SDS011;46681;47.696;9.140;2023-02-28T17:19:19;9.80;;;8.80;;
60847;SDS011;46681;47.696;9.140;2023-02-28T17:21:54;9.60;;;8.60;;
60847;SDS011;46681;47.696;9.140;2023-02-28T17:24:25;10.03;;;8.93;;
60847;SDS011;46681;47.696;9.140;2023-02-28T17:26:52;9.40;;;8.50;;
60847;SDS011;46681;47.696;9.140;2023-02-28T17:29:21;9.97;;;8.97;;
60847;SDS011;46681;47.696;9.140;2023-02-28T17:31:48;10.93;;;8.70;;
60847;SDS011;46681;47.696;9.140;2023-02-28T17:34:15;9.83;;;8.83;;
60847;SDS011;46681;47.696;9.140;2023-02-28T17:36:43;10.20;;;8.17;;
60847;SDS011;46681;47.696;9.140;2023-02-28T17:39:18;9.53;;;8.13;;
60847;SDS011;46681;47.696;9.140;2023-02-28T17:41:51;9.53;;;8.53;;
60847;SDS011;46681;47.696;9.140;2023-02-28T17:44:43;9.20;;;8.30;;
60847;SDS011;46681;47.696;9.140;2023-02-28T17:47:09;9.27;;;8.33;;
60847;SDS011;46681;47.696;9.140;2023-02-28T17:49:40;9.13;;;8.33;;
60847;SDS011;46681;47.696;9.140;2023-02-28T17:52:09;8.57;;;7.73;;
60847;SDS011;46681;47.696;9.140;2023-02-28T17:54:37;9.17;;;8.33;;
60847;SDS011;46681;47.696;9.140;2023-02-28T17:57:02;9.07;;;8.17;;
60847;SDS011;46681;47.696;9.140;2023-02-28T17:59:28;9.50;;;8.53;;
60847;SDS011;46681;47.696;9.140;2023-02-28T18:01:54;9.80;;;8.80;;
60847;SDS011;46681;47.696;9.140;2023-02-28T18:04:20;10.30;;;8.80;;
60847;SDS011;46681;47.696;9.140;2023-02-28T18:06:46;8.53;;;7.73;;
60847;SDS011;46681;47.696;9.140;2023-02-28T18:09:19;9.73;;;8.73;;
60847;SDS011;46681;47.696;9.140;2023-02-28T18:11:52;10.43;;;8.07;;
60847;SDS011;46681;47.696;9.140;2023-02-28T18:14:21;10.20;;;9.17;;
60847;SDS011;46681;47.696;9.140;2023-02-28T18:16:49;9.30;;;8.40;;
60847;SDS011;46681;47.696;9.140;2023-02-28T18:19:18;9.97;;;8.83;;
60847;SDS011;46681;47.696;9.140;2023-02-28T18:21:48;9.57;;;8.57;;
60847;SDS011;46681;47.696;9.140;2023-02-28T18:24:20;9.50;;;8.50;;
60847;SDS011;46681;47.696;9.140;2023-02-28T18:26:49;9.27;;;8.30;;